WXM80 ListenWXM80 Stop

You find our weather info also at:

UK Metoffice

WeatherCloud

Weather Underground

Northeastern Weather Network

AWEKAS

Citizen Weather Observer Program (CWOP)

HAMweather, WeatherForYou, PWS Weather


Weather Underground History page Text

Daily Summary for October 30, 2017 Units:  English    Metric   Both
« Previous Day
Next Day »
Daily Weekly Monthly Yearly Custom
  High: Low: Average:
Temperature: 65.6 °F 47.9 °F 54.9 °F
Dew Point: 64.4 °F 39.6 °F 47.9 °F
Humidity: 97 % 57 % 78 %
Wind Speed: 13.0 mph 0.0 mph 4.8 mph
Wind Gust: 31.1 mph - -
Wind:- - WSW
Pressure: 29.89 in 28.98 in -
Precipitation: 0.68 in    
Historical Graphs
 
 
Tabular Data for October 30, 2017
Time Temperature Dew Point Pressure Wind Wind Speed Wind Gust Humidity Rainfall Rate (Hourly)
00:01 65.6 °F 64.4 °F 28.99 in SSW 2.7 mph 7.0 mph 96 % 0.05 in
00:06 65.4 °F 63.9 °F 29.01 in South 11.0 mph 12.7 mph 95 % 0.05 in
00:11 65.2 °F 63.7 °F 29.01 in SW 6.7 mph 12.7 mph 95 % 0.06 in
00:16 65.0 °F 63.2 °F 29.02 in SSW 4.6 mph 16.1 mph 94 % 0.05 in
00:21 64.8 °F 63.0 °F 29.03 in SW 3.1 mph 10.0 mph 94 % 0.06 in
00:26 64.7 °F 62.9 °F 28.98 in SW 2.2 mph 6.0 mph 94 % 0.05 in
00:31 64.5 °F 62.7 °F 29.03 in WSW 5.3 mph 17.3 mph 94 % 0.06 in
00:36 64.3 °F 62.5 °F 28.98 in SSW 3.5 mph 11.5 mph 94 % 0.05 in
00:41 64.1 °F 62.3 °F 28.99 in SSW 2.0 mph 3.5 mph 94 % 0.06 in
00:46 63.8 °F 62.0 °F 29.03 in SSW 3.5 mph 6.9 mph 94 % 0.05 in
00:51 63.6 °F 61.5 °F 29.00 in West 3.3 mph 4.0 mph 93 % 0.06 in
00:56 63.4 °F 61.3 °F 29.03 in SW 3.7 mph 5.8 mph 93 % 0.06 in
01:01 63.1 °F 61.0 °F 29.01 in WSW 5.0 mph 6.9 mph 93 % 0.06 in
01:06 62.9 °F 60.8 °F 29.02 in SW 5.2 mph 10.4 mph 93 % 0.07 in
01:11 62.7 °F 60.6 °F 29.06 in WSW 1.7 mph 3.5 mph 93 % 0.07 in
01:16 62.6 °F 60.5 °F 29.06 in West 1.5 mph 2.3 mph 93 % 0.07 in
01:22 62.5 °F 60.4 °F 29.05 in WSW 0.3 mph 1.2 mph 93 % 0.06 in
01:27 62.3 °F 60.2 °F 29.05 in WSW 0.8 mph 3.5 mph 93 % 0.07 in
01:32 62.2 °F 60.2 °F 29.02 in Calm   1.2 mph 93 % 0.07 in
01:37 62.1 °F 60.1 °F 29.06 in WSW 0.1 mph 2.3 mph 93 % 0.06 in
01:42 61.9 °F 59.9 °F 29.06 in Calm   1.2 mph 93 % 0.06 in
01:47 61.7 °F 59.7 °F 29.06 in Calm     93 % 0.06 in
01:52 61.6 °F 59.6 °F 29.07 in WSW 0.3 mph 3.5 mph 93 % 0.07 in
02:02 61.2 °F 59.2 °F 29.03 in Calm     93 % 0.07 in
02:07 61.1 °F 59.1 °F 29.07 in WSW 0.1 mph   93 % 0.06 in
02:12 61.0 °F 59.3 °F 29.04 in WSW 0.3 mph 1.0 mph 94 % 0.06 in
02:17 61.0 °F 59.3 °F 29.04 in Calm     94 % 0.06 in
02:22 60.9 °F 59.5 °F 29.04 in WSW 0.1 mph   95 % 0.06 in
02:27 60.9 °F 59.5 °F 29.05 in WSW 0.7 mph 2.3 mph 95 % 0.06 in
02:32 60.9 °F 59.5 °F 29.04 in WSW 0.2 mph 3.5 mph 95 % 0.05 in
02:38 60.8 °F 59.4 °F 29.03 in SW 1.9 mph 3.5 mph 95 % 0.06 in
02:43 60.8 °F 59.4 °F 29.08 in Calm   2.3 mph 95 % 0.05 in
02:48 60.8 °F 59.4 °F 29.08 in Calm   1.2 mph 95 % 0.05 in
02:53 60.8 °F 59.4 °F 29.08 in SSE 0.3 mph 5.8 mph 95 % 0.05 in
02:58 60.7 °F 59.3 °F 29.09 in Calm     95 % 0.05 in
03:03 60.7 °F 59.3 °F 29.08 in Calm     95 % 0.04 in
03:08 60.7 °F 59.3 °F 29.08 in Calm     95 % 0.05 in
03:13 60.7 °F 59.3 °F 29.08 in Calm     95 % 0.04 in
03:18 60.6 °F 59.2 °F 29.08 in Calm   1.2 mph 95 % 0.05 in
03:23 60.5 °F 59.1 °F 29.08 in Calm     95 % 0.05 in
03:28 60.5 °F 59.4 °F 29.08 in Calm     96 % 0.04 in
03:33 60.5 °F 59.4 °F 29.08 in Calm     96 % 0.05 in
03:38 60.4 °F 59.3 °F 29.08 in Calm     96 % 0.04 in
03:43 60.4 °F 59.3 °F 29.08 in Calm     96 % 0.04 in
03:48 60.4 °F 59.3 °F 29.07 in Calm     96 % 0.05 in
03:53 60.4 °F 59.3 °F 29.07 in Calm     96 % 0.04 in
03:59 60.4 °F 59.3 °F 29.07 in Calm   1.2 mph 96 % 0.05 in
04:04 60.3 °F 59.2 °F 29.07 in SSE 0.2 mph 1.0 mph 96 % 0.05 in
04:09 60.3 °F 59.2 °F 29.07 in Calm     96 % 0.04 in
04:14 60.2 °F 59.1 °F 29.06 in Calm     96 % 0.05 in
04:19 60.2 °F 59.1 °F 29.06 in Calm     96 % 0.04 in
04:24 60.2 °F 59.1 °F 29.06 in SSE 1.6 mph 3.5 mph 96 % 0.04 in
04:29 60.2 °F 59.1 °F 29.06 in SSE 1.5 mph 3.5 mph 96 % 0.05 in
04:34 60.2 °F 59.1 °F 29.05 in SSE 1.3 mph 3.5 mph 96 % 0.04 in
04:39 60.3 °F 59.2 °F 29.05 in Calm     96 % 0.04 in
04:44 60.3 °F 59.2 °F 29.05 in SSE 0.1 mph 1.2 mph 96 % 0.04 in
04:49 60.4 °F 59.5 °F 29.05 in SE 1.4 mph 5.8 mph 97 % 0.04 in
04:54 60.5 °F 59.6 °F 29.04 in SE 0.3 mph 2.3 mph 97 % 0.04 in
04:59 60.6 °F 59.7 °F 29.04 in SE 0.4 mph 4.0 mph 97 % 0.03 in
05:04 60.7 °F 59.8 °F 29.03 in SE 0.8 mph 3.5 mph 97 % 0.03 in
05:10 60.8 °F 59.9 °F 29.03 in SE 0.8 mph 2.3 mph 97 % 0.03 in
05:15 60.9 °F 60.0 °F 29.02 in East 6.0 mph 8.1 mph 97 % 0.02 in
05:20 61.1 °F 60.2 °F 29.02 in SE 2.6 mph 11.5 mph 97 % 0.03 in
05:25 61.3 °F 60.4 °F 29.02 in South 7.2 mph 16.1 mph 97 % 0.03 in
05:30 61.3 °F 60.4 °F 29.02 in South 6.0 mph 11.5 mph 97 % 0.02 in
05:35 61.2 °F 60.3 °F 29.02 in SSW 2.1 mph 4.0 mph 97 % 0.02 in
05:40 61.1 °F 60.0 °F 29.03 in South 2.0 mph 5.8 mph 96 % 0.03 in
05:45 60.9 °F 59.8 °F 29.04 in WSW 6.9 mph 19.6 mph 96 % 0.02 in
05:50 60.4 °F 59.0 °F 29.05 in WSW 4.0 mph 6.0 mph 95 % 0.02 in
05:55 59.9 °F 58.2 °F 29.05 in South 2.4 mph 9.2 mph 94 % 0.03 in
06:00 59.4 °F 57.4 °F 29.06 in WSW 5.6 mph 11.5 mph 93 % 0.03 in
06:05 58.9 °F 56.6 °F 29.07 in WSW 8.4 mph 19.0 mph 92 % 0.03 in
06:10 58.2 °F 55.6 °F 29.07 in NW 9.7 mph 14.0 mph 91 % 0.04 in
06:15 57.4 °F 54.8 °F 29.08 in WNW 8.2 mph 12.0 mph 91 % 0.04 in
06:21 56.6 °F 53.7 °F 29.08 in WSW 6.5 mph 12.7 mph 90 % 0.03 in
06:26 55.9 °F 53.3 °F 29.09 in NW 8.7 mph 20.7 mph 91 % 0.04 in
06:31 55.1 °F 52.2 °F 29.10 in SSW 5.3 mph 19.6 mph 90 % 0.04 in
06:36 54.6 °F 52.0 °F 29.11 in WNW 3.3 mph 9.2 mph 91 % 0.03 in
06:41 54.3 °F 52.0 °F 29.11 in SSW 8.6 mph 12.7 mph 92 % 0.04 in
06:46 53.8 °F 51.2 °F 29.13 in WSW 6.8 mph 15.0 mph 91 % 0.04 in
06:51 53.5 °F 51.2 °F 29.13 in WSW 5.6 mph 7.0 mph 92 % 0.04 in
06:56 53.1 °F 50.8 °F 29.14 in WSW 9.2 mph 16.1 mph 92 % 0.03 in
07:01 52.8 °F 50.8 °F 29.15 in WNW 5.8 mph 16.1 mph 93 % 0.04 in
07:06 52.6 °F 50.6 °F 29.16 in SW 9.0 mph 14.0 mph 93 % 0.04 in
07:11 52.3 °F 50.3 °F 29.17 in WSW 9.7 mph 11.5 mph 93 % 0.03 in
07:16 52.1 °F 50.4 °F 29.17 in West 7.0 mph 18.4 mph 94 % 0.04 in
07:22 51.8 °F 50.1 °F 29.18 in West 8.4 mph 13.8 mph 94 % 0.04 in
07:27 51.6 °F 49.9 °F 29.19 in SW 7.2 mph 21.9 mph 94 % 0.03 in
07:32 51.5 °F 49.8 °F 29.20 in SSW 4.8 mph 12.7 mph 94 % 0.03 in
07:37 51.3 °F 49.6 °F 29.20 in WNW 8.1 mph 13.8 mph 94 % 0.03 in
07:42 51.2 °F 49.8 °F 29.21 in WNW 4.0 mph 11.5 mph 95 % 0.03 in
07:47 51.0 °F 49.3 °F 29.21 in NW 8.6 mph 12.7 mph 94 % 0.03 in
07:52 50.8 °F 49.1 °F 29.22 in WNW 3.8 mph 10.4 mph 94 % 0.03 in
07:57 50.7 °F 49.3 °F 29.23 in SSW 8.1 mph 11.5 mph 95 % 0.02 in
08:02 50.5 °F 49.1 °F 29.24 in West 8.6 mph 17.3 mph 95 % 0.03 in
08:07 50.2 °F 48.5 °F 29.25 in WNW 8.9 mph 19.6 mph 94 % 0.03 in
08:12 49.9 °F 48.2 °F 29.25 in SSW 8.2 mph 19.6 mph 94 % 0.03 in
08:17 49.6 °F 47.9 °F 29.26 in WSW 11.8 mph 18.4 mph 94 % 0.02 in
08:22 49.4 °F 47.5 °F 29.27 in West 13.0 mph 31.1 mph 93 % 0.02 in
08:27 49.0 °F 46.8 °F 29.27 in WSW 8.4 mph 12.7 mph 92 % 0.02 in
08:32 48.9 °F 46.7 °F 29.28 in WNW 8.2 mph 16.1 mph 92 % 0.03 in
08:37 48.9 °F 46.7 °F 29.29 in SW 11.4 mph 19.6 mph 92 % 0.03 in
08:42 48.8 °F 46.3 °F 29.30 in West 9.3 mph 15.0 mph 91 % 0.02 in
08:47 48.7 °F 46.2 °F 29.31 in WNW 12.8 mph 25.3 mph 91 % 0.02 in
08:52 48.7 °F 46.2 °F 29.31 in SSW 9.1 mph 15.0 mph 91 % 0.03 in
08:58 48.7 °F 46.2 °F 29.33 in WNW 8.8 mph 16.0 mph 91 % 0.03 in
09:03 48.5 °F 46.0 °F 29.33 in WNW 11.9 mph 19.6 mph 91 % 0.02 in
09:08 48.3 °F 45.8 °F 29.35 in SW 10.8 mph 16.1 mph 91 % 0.02 in
09:13 48.1 °F 45.3 °F 29.35 in NNW 9.9 mph 20.7 mph 90 % 0.02 in
09:18 48.0 °F 45.5 °F 29.35 in SW 6.2 mph 10.4 mph 91 % 0.03 in
09:23 47.9 °F 45.1 °F 29.36 in NW 12.5 mph 22.0 mph 90 % 0.03 in
09:28 47.9 °F 44.8 °F 29.36 in West 11.0 mph 18.4 mph 89 % 0.02 in
09:33 48.0 °F 44.9 °F 29.37 in WSW 11.1 mph 18.4 mph 89 % 0.03 in
09:38 48.1 °F 44.4 °F 29.38 in West 12.4 mph 20.7 mph 87 % 0.03 in
09:43 48.4 °F 44.7 °F 29.38 in WSW 9.6 mph 16.1 mph 87 % 0.03 in
09:48 48.7 °F 44.7 °F 29.39 in WSW 10.4 mph 25.3 mph 86 % 0.03 in
09:53 48.9 °F 44.9 °F 29.40 in SW 11.3 mph 20.0 mph 86 % 0.03 in
09:58 49.2 °F 44.9 °F 29.40 in West 4.3 mph 12.7 mph 85 % 0.03 in
10:03 49.5 °F 45.5 °F 29.41 in North 6.1 mph 15.0 mph 86 % 0.03 in
10:08 49.8 °F 45.5 °F 29.41 in SW 5.9 mph 12.7 mph 85 % 0.03 in
10:14 50.0 °F 45.4 °F 29.42 in WNW 7.5 mph 16.1 mph 84 % 0.04 in
10:24 50.3 °F 44.7 °F 29.43 in West 12.3 mph 21.9 mph 81 % 0.03 in
10:29 50.5 °F 44.6 °F 29.44 in WSW 7.7 mph 17.3 mph 80 % 0.04 in
10:34 50.9 °F 45.3 °F 29.43 in West 6.8 mph 17.3 mph 81 % 0.03 in
10:39 51.3 °F 45.7 °F 29.44 in WNW 4.7 mph 7.0 mph 81 % 0.03 in
10:44 51.4 °F 45.1 °F 29.44 in WSW 10.4 mph 17.3 mph 79 % 0.03 in
10:49 51.6 °F 45.0 °F 29.44 in NW 10.3 mph 19.6 mph 78 % 0.04 in
10:54 51.8 °F 45.2 °F 29.45 in West 11.3 mph 18.4 mph 78 % 0.03 in
10:59 52.1 °F 45.1 °F 29.46 in West 8.0 mph 17.3 mph 77 % 0.03 in
11:04 52.5 °F 45.2 °F 29.46 in WSW 6.9 mph 16.1 mph 76 % 0.03 in
11:09 52.8 °F 45.1 °F 29.46 in WSW 3.0 mph 11.5 mph 75 % 0.02 in
11:14 53.0 °F 45.6 °F 29.47 in West 8.5 mph 18.4 mph 76 % 0.03 in
11:19 53.2 °F 45.1 °F 29.49 in WNW 8.1 mph 17.3 mph 74 % 0.03 in
11:24 53.3 °F 44.9 °F 29.49 in West 10.6 mph 26.5 mph 73 % 0.03 in
11:30 53.2 °F 44.8 °F 29.51 in West 11.0 mph 18.0 mph 73 % 0.03 in
11:35 53.0 °F 44.9 °F 29.51 in WSW 8.0 mph 31.1 mph 74 % 0.03 in
11:40 53.0 °F 45.6 °F 29.51 in West 9.0 mph 12.0 mph 76 % 0.03 in
11:45 53.1 °F 45.0 °F 29.52 in WSW 9.4 mph 19.6 mph 74 % 0.03 in
11:55 53.2 °F 45.1 °F 29.53 in West 8.3 mph 21.9 mph 74 % 0.03 in
12:00 53.2 °F 44.4 °F 29.53 in West 10.5 mph 22.0 mph 72 % 0.03 in
12:05 53.4 °F 43.5 °F 29.53 in SW 9.9 mph 16.1 mph 69 % 0.03 in
12:10 53.7 °F 44.9 °F 29.53 in WSW 10.4 mph 19.6 mph 72 % 0.02 in
12:15 54.0 °F 44.8 °F 29.55 in WNW 12.9 mph 19.6 mph 71 % 0.02 in
12:20 54.3 °F 44.7 °F 29.54 in WNW 11.9 mph 23.0 mph 70 % 0.03 in
12:25 54.4 °F 44.1 °F 29.55 in WSW 9.7 mph 16.1 mph 68 % 0.03 in
12:30 54.5 °F 44.9 °F 29.56 in SSW 7.5 mph 13.8 mph 70 % 0.02 in
12:35 54.6 °F 45.4 °F 29.56 in SW 5.0 mph 11.5 mph 71 % 0.02 in
12:40 54.7 °F 43.6 °F 29.57 in WSW 10.7 mph 20.0 mph 66 % 0.02 in
12:45 54.8 °F 42.4 °F 29.57 in WNW 9.9 mph 18.4 mph 63 % 0.03 in
12:56 54.9 °F 42.9 °F 29.57 in WNW 9.0 mph 20.0 mph 64 % 0.00 in
13:01 55.1 °F 43.5 °F 29.57 in WNW 7.2 mph 17.3 mph 65 % 0.02 in
13:06 55.3 °F 44.5 °F 29.57 in NW 6.5 mph 15.0 mph 67 % 0.03 in
13:11 55.4 °F 43.8 °F 29.57 in WSW 8.4 mph 15.0 mph 65 % 0.03 in
13:16 55.4 °F 44.2 °F 29.57 in SSW 3.5 mph 11.5 mph 66 % 0.03 in
13:21 55.5 °F 43.9 °F 29.57 in NW 7.9 mph 13.0 mph 65 % 0.02 in
13:26 55.7 °F 43.7 °F 29.57 in WSW 10.7 mph 18.4 mph 64 % 0.02 in
13:31 55.8 °F 44.2 °F 29.58 in SSW 6.5 mph 9.2 mph 65 % 0.02 in
13:36 56.1 °F 44.5 °F 29.59 in West 6.8 mph 17.0 mph 65 % 0.03 in
13:41 56.5 °F 43.6 °F 29.59 in WNW 10.8 mph 26.5 mph 62 % 0.03 in
13:46 56.9 °F 43.6 °F 29.59 in WSW 8.2 mph 16.1 mph 61 % 0.02 in
13:51 57.3 °F 44.0 °F 29.60 in WNW 9.1 mph 19.6 mph 61 % 0.02 in
13:56 57.6 °F 44.2 °F 29.60 in WSW 4.9 mph 8.1 mph 61 % 0.03 in
14:01 57.9 °F 44.5 °F 29.60 in WSW 7.8 mph 10.4 mph 61 % 0.03 in
14:06 58.2 °F 44.8 °F 29.61 in WSW 5.3 mph 12.7 mph 61 % 0.02 in
14:12 58.4 °F 45.4 °F 29.61 in NW 6.9 mph 13.0 mph 62 % 0.02 in
14:17 58.6 °F 45.2 °F 29.62 in SW 8.4 mph 12.0 mph 61 % 0.02 in
14:22 58.6 °F 44.3 °F 29.62 in SW 7.7 mph 16.1 mph 59 % 0.03 in
14:27 58.5 °F 44.7 °F 29.63 in SW 4.8 mph 13.8 mph 60 % 0.03 in
14:32 58.5 °F 43.3 °F 29.63 in SW 10.5 mph 25.3 mph 57 % 0.02 in
14:37 58.4 °F 44.1 °F 29.63 in WNW 8.4 mph 15.0 mph 59 % 0.02 in
14:42 58.5 °F 45.1 °F 29.63 in West 5.6 mph 13.0 mph 61 % 0.03 in
14:47 58.5 °F 44.2 °F 29.63 in SW 7.5 mph 12.7 mph 59 % 0.03 in
14:52 58.4 °F 43.7 °F 29.64 in SSW 7.2 mph 19.6 mph 58 % 0.03 in
15:07 58.2 °F 43.5 °F 29.66 in WSW 8.2 mph 16.1 mph 58 % 0.03 in
15:10 58.1 °F 43.8 °F 29.66 in SW 8.2 mph 18.4 mph 59 % 0.03 in
15:15 57.8 °F 42.7 °F 29.66 in WSW 11.0 mph 20.0 mph 57 % 0.03 in
15:20 57.5 °F 42.8 °F 29.67 in NW 6.0 mph 17.3 mph 58 % 0.02 in
15:25 57.3 °F 42.2 °F 29.67 in SSW 7.8 mph 13.8 mph 57 % 0.03 in
15:30 57.0 °F 42.4 °F 29.67 in WSW 6.5 mph 11.5 mph 58 % 0.03 in
15:35 56.7 °F 42.1 °F 29.68 in WNW 9.0 mph 17.3 mph 58 % 0.03 in
15:40 56.5 °F 42.3 °F 29.69 in WSW 3.8 mph 13.8 mph 59 % 0.02 in
15:45 56.3 °F 42.1 °F 29.69 in WSW 5.5 mph 11.5 mph 59 % 0.02 in
15:51 56.1 °F 42.0 °F 29.68 in NW 8.1 mph 18.4 mph 59 % 0.02 in
16:01 55.8 °F 42.1 °F 29.69 in SSW 8.0 mph 13.8 mph 60 % 0.02 in
16:06 55.7 °F 41.6 °F 29.69 in WNW 6.2 mph 12.7 mph 59 % 0.02 in
16:11 55.5 °F 41.4 °F 29.70 in WSW 8.3 mph 17.3 mph 59 % 0.02 in
16:16 55.4 °F 41.7 °F 29.71 in SSW 3.1 mph 4.6 mph 60 % 0.02 in
16:21 55.3 °F 41.6 °F 29.71 in SW 4.8 mph 11.5 mph 60 % 0.03 in
16:26 55.1 °F 41.5 °F 29.70 in WSW 4.9 mph 11.5 mph 60 % 0.02 in
16:31 55.0 °F 42.2 °F 29.71 in WSW 5.5 mph 10.0 mph 62 % 0.02 in
16:36 54.9 °F 41.7 °F 29.71 in SSW 5.6 mph 11.5 mph 61 % 0.02 in
16:41 54.8 °F 41.6 °F 29.72 in SW 6.8 mph 9.2 mph 61 % 0.03 in
16:51 54.5 °F 40.0 °F 29.72 in WSW 3.6 mph 8.1 mph 58 % 0.02 in
16:56 54.4 °F 40.4 °F 29.72 in SSW 5.6 mph 9.2 mph 59 % 0.02 in
17:01 54.3 °F 40.7 °F 29.73 in SW 5.5 mph 8.1 mph 60 % 0.02 in
17:06 54.2 °F 40.2 °F 29.73 in SW 6.6 mph 12.0 mph 59 % 0.03 in
17:12 54.1 °F 40.5 °F 29.73 in WSW 3.4 mph 4.0 mph 60 % 0.03 in
17:17 54.0 °F 40.4 °F 29.74 in WSW 6.1 mph 13.0 mph 60 % 0.03 in
17:22 53.9 °F 40.3 °F 29.74 in SSW 6.0 mph 10.0 mph 60 % 0.02 in
17:27 53.8 °F 40.7 °F 29.74 in NW 4.5 mph 13.0 mph 61 % 0.02 in
17:32 53.7 °F 41.0 °F 29.74 in SSW 3.2 mph 5.0 mph 62 % 0.03 in
17:37 53.6 °F 40.9 °F 29.74 in SSW 3.6 mph 6.9 mph 62 % 0.03 in
17:42 53.4 °F 40.7 °F 29.75 in WSW 4.2 mph 8.1 mph 62 % 0.02 in
17:47 53.3 °F 40.6 °F 29.75 in WSW 3.1 mph 6.9 mph 62 % 0.02 in
17:52 53.2 °F 40.5 °F 29.75 in SW 3.0 mph 6.9 mph 62 % 0.02 in
17:57 53.0 °F 41.1 °F 29.76 in SSW 3.7 mph 4.6 mph 64 % 0.03 in
18:02 52.9 °F 41.0 °F 29.76 in West 2.3 mph 4.6 mph 64 % 0.02 in
18:07 52.8 °F 41.0 °F 29.76 in SSW 2.3 mph 3.5 mph 64 % 0.02 in
18:12 52.7 °F 41.3 °F 29.77 in SSW 0.4 mph 3.5 mph 65 % 0.02 in
18:17 52.5 °F 41.5 °F 29.77 in West 4.7 mph 5.0 mph 66 % 0.02 in
18:23 52.3 °F 40.5 °F 29.78 in SW 2.5 mph 6.9 mph 64 % 0.02 in
18:28 52.2 °F 40.8 °F 29.78 in WSW 2.7 mph 6.9 mph 65 % 0.02 in
18:33 52.1 °F 40.7 °F 29.78 in SSW 3.7 mph 7.0 mph 65 % 0.02 in
18:38 52.0 °F 41.4 °F 29.78 in SSW 0.6 mph 3.5 mph 67 % 0.02 in
18:43 51.9 °F 41.3 °F 29.78 in SSW 4.1 mph 5.8 mph 67 % 0.02 in
18:48 51.8 °F 40.8 °F 29.78 in WSW 3.9 mph 6.9 mph 66 % 0.02 in
18:53 51.6 °F 40.6 °F 29.78 in WSW 4.9 mph 11.5 mph 66 % 0.02 in
18:58 51.5 °F 40.5 °F 29.79 in SSW 3.8 mph 6.9 mph 66 % 0.01 in
19:03 51.4 °F 40.8 °F 29.79 in WSW 4.2 mph 5.8 mph 67 % 0.02 in
19:08 51.4 °F 41.2 °F 29.79 in WSW 1.8 mph 3.5 mph 68 % 0.02 in
19:11 51.4 °F 41.2 °F 29.79 in WSW 1.1 mph 3.5 mph 68 % 0.02 in
19:16 51.3 °F 41.1 °F 29.80 in West 0.9 mph 3.5 mph 68 % 0.02 in
19:21 51.1 °F 40.9 °F 29.81 in SW 1.8 mph 5.0 mph 68 % 0.02 in
19:26 51.0 °F 40.8 °F 29.81 in WSW 1.5 mph 4.6 mph 68 % 0.02 in
19:31 50.8 °F 41.0 °F 29.81 in SSW 1.5 mph 3.5 mph 69 % 0.01 in
19:36 50.8 °F 41.0 °F 29.81 in SW 0.1 mph 1.2 mph 69 % 0.01 in
19:41 50.6 °F 41.5 °F 29.82 in West 0.7 mph 1.0 mph 71 % 0.01 in
19:46 50.5 °F 41.4 °F 29.81 in West 0.1 mph 1.2 mph 71 % 0.02 in
19:51 50.4 °F 41.3 °F 29.82 in SSW 0.7 mph 1.2 mph 71 % 0.02 in
19:56 50.1 °F 41.1 °F 29.82 in SSW 1.5 mph 2.3 mph 71 % 0.02 in
20:01 50.0 °F 41.0 °F 29.80 in SSW 0.3 mph 1.2 mph 71 % 0.02 in
20:07 49.7 °F 40.7 °F 29.83 in SSW 0.1 mph 2.3 mph 71 % 0.01 in
20:12 49.5 °F 40.1 °F 29.82 in SW 0.6 mph 8.1 mph 70 % 0.01 in
20:17 49.4 °F 40.0 °F 29.82 in SSW 4.3 mph 10.0 mph 70 % 0.01 in
20:22 49.4 °F 40.0 °F 29.83 in WSW 1.4 mph 4.6 mph 70 % 0.01 in
20:27 49.4 °F 40.0 °F 29.83 in South 4.7 mph 9.2 mph 70 % 0.01 in
20:32 49.6 °F 39.8 °F 29.83 in WSW 3.8 mph 6.9 mph 69 % 0.02 in
20:37 49.7 °F 39.9 °F 29.83 in SW 1.1 mph 3.0 mph 69 % 0.02 in
20:42 49.8 °F 40.0 °F 29.83 in SSW 2.6 mph 3.5 mph 69 % 0.02 in
20:47 49.9 °F 40.1 °F 29.84 in SW 2.8 mph 6.9 mph 69 % 0.01 in
20:48 49.9 °F 40.1 °F 29.83 in West 2.8 mph 5.8 mph 69 % 0.01 in
20:53 50.1 °F 40.3 °F 29.83 in SSW 0.6 mph 3.5 mph 69 % 0.01 in
20:58 50.1 °F 40.3 °F 29.84 in SSE 2.1 mph 3.5 mph 69 % 0.01 in
21:04 50.2 °F 40.4 °F 29.84 in SSW 0.1 mph 3.5 mph 69 % 0.01 in
21:09 50.3 °F 40.9 °F 29.84 in WSW 1.9 mph 6.9 mph 70 % 0.01 in
21:14 50.3 °F 40.1 °F 29.85 in SW 0.5 mph 5.8 mph 68 % 0.01 in
21:29 50.4 °F 41.0 °F 29.85 in SSW 3.1 mph 8.1 mph 70 % 0.01 in
21:39 50.4 °F 41.0 °F 29.85 in SW 1.0 mph 9.2 mph 70 % 0.01 in
21:44 50.5 °F 41.1 °F 29.85 in SW 0.4 mph 2.3 mph 70 % 0.01 in
21:49 50.4 °F 41.0 °F 29.85 in SW 2.2 mph 5.8 mph 70 % 0.01 in
21:54 50.4 °F 41.0 °F 29.85 in SSW 1.6 mph 7.0 mph 70 % 0.01 in
21:59 50.4 °F 41.0 °F 29.86 in SSW 2.9 mph 3.5 mph 70 % 0.01 in
22:04 50.5 °F 41.1 °F 29.86 in SW 3.0 mph 4.6 mph 70 % 0.01 in
22:09 50.6 °F 40.8 °F 29.87 in SSW 5.5 mph 11.5 mph 69 % 0.01 in
22:14 50.7 °F 40.9 °F 29.87 in SW 8.1 mph 12.7 mph 69 % 0.02 in
22:20 50.8 °F 41.0 °F 29.87 in SSW 4.2 mph 15.0 mph 69 % 0.02 in
22:25 51.0 °F 40.4 °F 29.87 in SSW 2.9 mph 16.1 mph 67 % 0.01 in
22:27 51.0 °F 40.8 °F 29.86 in SSW 0.8 mph 3.5 mph 68 % 0.01 in
22:32 51.1 °F 40.9 °F 29.87 in SSW 3.7 mph 6.9 mph 68 % 0.01 in
22:37 51.2 °F 41.0 °F 29.86 in WSW 5.0 mph 8.1 mph 68 % 0.01 in
22:42 51.2 °F 41.0 °F 29.87 in SSW 3.4 mph 8.1 mph 68 % 0.01 in
22:47 51.2 °F 41.0 °F 29.87 in SSW 3.4 mph 6.9 mph 68 % 0.01 in
22:52 51.3 °F 41.1 °F 29.87 in WSW 0.8 mph 3.5 mph 68 % 0.01 in
22:57 51.2 °F 40.6 °F 29.87 in SW 3.0 mph 8.1 mph 67 % 0.01 in
23:02 51.2 °F 40.6 °F 29.87 in SW 2.9 mph 4.6 mph 67 % 0.01 in
23:07 51.2 °F 40.6 °F 29.87 in WSW 2.3 mph 5.0 mph 67 % 0.01 in
23:13 51.2 °F 40.6 °F 29.88 in SW 1.8 mph 5.8 mph 67 % 0.00 in
23:22 51.1 °F 40.1 °F 29.88 in West 3.3 mph 12.0 mph 66 % 0.01 in
23:25 51.1 °F 40.5 °F 29.88 in WSW 2.1 mph 5.8 mph 67 % 0.01 in
23:28 51.0 °F 40.4 °F 29.64 in WSW 3.6 mph 5.0 mph 67 % 0.01 in
23:29 51.0 °F 40.4 °F 29.88 in WSW 3.7 mph 7.0 mph 67 % 0.01 in
23:30 51.0 °F 40.4 °F 29.88 in SW 2.9 mph 11.5 mph 67 % 0.01 in
23:35 51.0 °F 39.6 °F 29.88 in SW 4.2 mph 8.1 mph 65 % 0.01 in
23:36 51.0 °F 40.0 °F 29.88 in WSW 1.4 mph 3.5 mph 66 % 0.01 in
23:41 51.0 °F 40.0 °F 29.89 in WSW 0.7 mph 3.5 mph 66 % 0.01 in
23:46 51.0 °F 40.0 °F 29.89 in WSW 4.6 mph 8.0 mph 66 % 0.01 in
23:51 51.0 °F 40.0 °F 29.89 in SSW 2.5 mph 4.6 mph 66 % 0.01 in
23:56 51.0 °F 39.6 °F 29.89 in SW 2.2 mph 11.5 mph 65 % 0.01 in
Crab Meadow Weather
Compliments of Weather Underground - 3 mb

Script developed by  Jim McMurry - jmcmurry@mwt.net Adapted for the template by  Wim van der Kuil - Leuven-Template.eu

Weather Terms: Flood Warning (river flood)- A warning for specific communities or areas along a river where flooding is imminent or occurring. Flood warnings normally give specific crest forecasts.